sensor_id;sensor_type;location;lat;lon;timestamp;P1;durP1;ratioP1;P2;durP2;ratioP2
31132;SDS011;17779;50.942;4.026;2023-05-07T00:00:19;18.13;;;5.30;;
31132;SDS011;17779;50.942;4.026;2023-05-07T00:02:45;16.83;;;5.50;;
31132;SDS011;17779;50.942;4.026;2023-05-07T00:05:12;16.85;;;5.57;;
31132;SDS011;17779;50.942;4.026;2023-05-07T00:07:39;13.95;;;4.90;;
31132;SDS011;17779;50.942;4.026;2023-05-07T00:10:05;14.68;;;4.53;;
31132;SDS011;17779;50.942;4.026;2023-05-07T00:12:32;18.63;;;5.35;;
31132;SDS011;17779;50.942;4.026;2023-05-07T00:15:03;18.52;;;4.78;;
31132;SDS011;17779;50.942;4.026;2023-05-07T00:17:30;17.67;;;6.80;;
31132;SDS011;17779;50.942;4.026;2023-05-07T00:19:57;18.67;;;5.55;;
31132;SDS011;17779;50.942;4.026;2023-05-07T00:22:23;18.08;;;5.72;;
31132;SDS011;17779;50.942;4.026;2023-05-07T00:24:49;18.17;;;5.68;;
31132;SDS011;17779;50.942;4.026;2023-05-07T00:27:15;18.50;;;5.20;;
31132;SDS011;17779;50.942;4.026;2023-05-07T00:29:41;19.02;;;5.38;;
31132;SDS011;17779;50.942;4.026;2023-05-07T00:32:07;18.05;;;4.90;;
31132;SDS011;17779;50.942;4.026;2023-05-07T00:34:33;23.63;;;5.07;;
31132;SDS011;17779;50.942;4.026;2023-05-07T00:36:59;13.50;;;5.90;;
31132;SDS011;17779;50.942;4.026;2023-05-07T00:39:26;20.90;;;5.47;;
31132;SDS011;17779;50.942;4.026;2023-05-07T00:41:51;14.48;;;5.35;;
31132;SDS011;17779;50.942;4.026;2023-05-07T00:44:17;14.18;;;4.70;;
31132;SDS011;17779;50.942;4.026;2023-05-07T00:46:43;18.92;;;5.32;;
31132;SDS011;17779;50.942;4.026;2023-05-07T00:49:10;14.55;;;4.65;;
31132;SDS011;17779;50.942;4.026;2023-05-07T00:54:03;21.95;;;5.30;;
31132;SDS011;17779;50.942;4.026;2023-05-07T00:56:29;15.70;;;5.18;;
31132;SDS011;17779;50.942;4.026;2023-05-07T00:58:56;14.13;;;5.10;;
31132;SDS011;17779;50.942;4.026;2023-05-07T01:01:22;14.43;;;5.35;;
31132;SDS011;17779;50.942;4.026;2023-05-07T01:03:48;14.57;;;4.93;;
31132;SDS011;17779;50.942;4.026;2023-05-07T01:06:14;21.52;;;5.72;;
31132;SDS011;17779;50.942;4.026;2023-05-07T01:08:42;24.15;;;5.88;;
31132;SDS011;17779;50.942;4.026;2023-05-07T01:13:34;23.48;;;5.85;;
31132;SDS011;17779;50.942;4.026;2023-05-07T01:16:01;17.58;;;5.65;;
31132;SDS011;17779;50.942;4.026;2023-05-07T01:18:28;19.42;;;6.10;;
31132;SDS011;17779;50.942;4.026;2023-05-07T01:20:55;15.82;;;5.25;;
31132;SDS011;17779;50.942;4.026;2023-05-07T01:23:25;16.67;;;5.75;;
31132;SDS011;17779;50.942;4.026;2023-05-07T01:25:52;17.13;;;5.75;;
31132;SDS011;17779;50.942;4.026;2023-05-07T01:28:19;16.98;;;6.05;;
31132;SDS011;17779;50.942;4.026;2023-05-07T01:30:46;18.77;;;6.13;;
31132;SDS011;17779;50.942;4.026;2023-05-07T01:33:15;17.33;;;6.18;;
31132;SDS011;17779;50.942;4.026;2023-05-07T01:35:45;18.90;;;5.85;;
31132;SDS011;17779;50.942;4.026;2023-05-07T01:38:15;13.13;;;5.75;;
31132;SDS011;17779;50.942;4.026;2023-05-07T01:40:43;19.27;;;6.55;;
31132;SDS011;17779;50.942;4.026;2023-05-07T01:43:09;19.02;;;6.13;;
31132;SDS011;17779;50.942;4.026;2023-05-07T01:45:35;23.00;;;5.38;;
31132;SDS011;17779;50.942;4.026;2023-05-07T01:48:02;18.02;;;6.10;;
31132;SDS011;17779;50.942;4.026;2023-05-07T01:50:28;16.48;;;6.25;;
31132;SDS011;17779;50.942;4.026;2023-05-07T01:52:56;16.35;;;5.53;;
31132;SDS011;17779;50.942;4.026;2023-05-07T01:55:22;20.90;;;6.43;;
31132;SDS011;17779;50.942;4.026;2023-05-07T01:57:48;17.13;;;5.97;;
31132;SDS011;17779;50.942;4.026;2023-05-07T02:00:14;16.88;;;5.82;;
31132;SDS011;17779;50.942;4.026;2023-05-07T02:02:40;23.00;;;6.97;;
31132;SDS011;17779;50.942;4.026;2023-05-07T02:05:08;19.50;;;6.70;;
31132;SDS011;17779;50.942;4.026;2023-05-07T02:07:33;15.48;;;5.93;;
31132;SDS011;17779;50.942;4.026;2023-05-07T02:09:59;19.33;;;5.70;;
31132;SDS011;17779;50.942;4.026;2023-05-07T02:12:27;22.70;;;6.13;;
31132;SDS011;17779;50.942;4.026;2023-05-07T02:14:53;18.73;;;5.85;;
31132;SDS011;17779;50.942;4.026;2023-05-07T02:17:18;21.40;;;5.50;;
31132;SDS011;17779;50.942;4.026;2023-05-07T02:19:44;18.75;;;5.47;;
31132;SDS011;17779;50.942;4.026;2023-05-07T02:22:10;21.73;;;5.95;;
31132;SDS011;17779;50.942;4.026;2023-05-07T02:24:36;23.40;;;6.63;;
31132;SDS011;17779;50.942;4.026;2023-05-07T02:27:01;17.30;;;6.55;;
31132;SDS011;17779;50.942;4.026;2023-05-07T02:31:54;15.98;;;6.32;;
31132;SDS011;17779;50.942;4.026;2023-05-07T02:34:20;16.65;;;6.38;;
31132;SDS011;17779;50.942;4.026;2023-05-07T02:36:46;18.77;;;6.55;;
31132;SDS011;17779;50.942;4.026;2023-05-07T02:39:12;15.38;;;5.93;;
31132;SDS011;17779;50.942;4.026;2023-05-07T02:41:38;12.75;;;5.47;;
31132;SDS011;17779;50.942;4.026;2023-05-07T02:44:04;14.48;;;5.45;;
31132;SDS011;17779;50.942;4.026;2023-05-07T02:46:32;17.98;;;5.95;;
31132;SDS011;17779;50.942;4.026;2023-05-07T02:48:58;14.57;;;5.43;;
31132;SDS011;17779;50.942;4.026;2023-05-07T02:51:25;14.63;;;5.38;;
31132;SDS011;17779;50.942;4.026;2023-05-07T02:53:51;16.13;;;5.70;;
31132;SDS011;17779;50.942;4.026;2023-05-07T02:56:17;12.95;;;5.22;;
31132;SDS011;17779;50.942;4.026;2023-05-07T02:58:43;15.35;;;5.95;;
31132;SDS011;17779;50.942;4.026;2023-05-07T03:01:09;15.63;;;5.63;;
31132;SDS011;17779;50.942;4.026;2023-05-07T03:03:35;13.23;;;5.28;;
31132;SDS011;17779;50.942;4.026;2023-05-07T03:08:27;13.10;;;5.10;;
31132;SDS011;17779;50.942;4.026;2023-05-07T03:10:52;19.75;;;6.32;;
31132;SDS011;17779;50.942;4.026;2023-05-07T03:13:18;18.77;;;5.88;;
31132;SDS011;17779;50.942;4.026;2023-05-07T03:18:13;12.18;;;5.53;;
31132;SDS011;17779;50.942;4.026;2023-05-07T03:20:38;22.77;;;6.07;;
31132;SDS011;17779;50.942;4.026;2023-05-07T03:23:04;17.85;;;6.47;;
31132;SDS011;17779;50.942;4.026;2023-05-07T03:25:31;17.45;;;6.28;;
31132;SDS011;17779;50.942;4.026;2023-05-07T03:27:57;18.33;;;5.63;;
31132;SDS011;17779;50.942;4.026;2023-05-07T03:30:23;12.82;;;5.72;;
31132;SDS011;17779;50.942;4.026;2023-05-07T03:32:49;13.73;;;5.55;;
31132;SDS011;17779;50.942;4.026;2023-05-07T03:37:41;14.02;;;6.05;;
31132;SDS011;17779;50.942;4.026;2023-05-07T03:40:07;15.52;;;5.85;;
31132;SDS011;17779;50.942;4.026;2023-05-07T03:42:35;12.10;;;5.63;;
31132;SDS011;17779;50.942;4.026;2023-05-07T03:45:01;22.83;;;6.35;;
31132;SDS011;17779;50.942;4.026;2023-05-07T03:47:27;15.10;;;6.20;;
31132;SDS011;17779;50.942;4.026;2023-05-07T03:49:52;20.40;;;5.50;;
31132;SDS011;17779;50.942;4.026;2023-05-07T03:52:19;17.67;;;6.43;;
31132;SDS011;17779;50.942;4.026;2023-05-07T03:54:49;18.30;;;6.05;;
31132;SDS011;17779;50.942;4.026;2023-05-07T03:57:15;16.52;;;5.55;;
31132;SDS011;17779;50.942;4.026;2023-05-07T03:59:41;18.52;;;6.43;;
31132;SDS011;17779;50.942;4.026;2023-05-07T04:02:06;20.23;;;6.70;;
31132;SDS011;17779;50.942;4.026;2023-05-07T04:04:32;17.00;;;6.10;;
31132;SDS011;17779;50.942;4.026;2023-05-07T04:06:58;15.95;;;6.00;;
31132;SDS011;17779;50.942;4.026;2023-05-07T04:09:25;14.82;;;5.68;;
31132;SDS011;17779;50.942;4.026;2023-05-07T04:11:51;12.13;;;5.68;;
31132;SDS011;17779;50.942;4.026;2023-05-07T04:14:16;16.10;;;5.88;;
31132;SDS011;17779;50.942;4.026;2023-05-07T04:16:42;16.35;;;5.68;;
31132;SDS011;17779;50.942;4.026;2023-05-07T04:19:08;20.48;;;5.90;;
31132;SDS011;17779;50.942;4.026;2023-05-07T04:21:33;20.02;;;5.93;;
31132;SDS011;17779;50.942;4.026;2023-05-07T04:23:59;22.17;;;6.45;;
31132;SDS011;17779;50.942;4.026;2023-05-07T04:26:25;17.80;;;5.55;;
31132;SDS011;17779;50.942;4.026;2023-05-07T04:28:51;18.83;;;5.93;;
31132;SDS011;17779;50.942;4.026;2023-05-07T04:31:17;14.07;;;5.88;;
31132;SDS011;17779;50.942;4.026;2023-05-07T04:33:43;15.80;;;5.47;;
31132;SDS011;17779;50.942;4.026;2023-05-07T04:36:09;16.00;;;6.18;;
31132;SDS011;17779;50.942;4.026;2023-05-07T04:38:35;22.30;;;5.68;;
31132;SDS011;17779;50.942;4.026;2023-05-07T04:41:05;19.38;;;6.78;;
31132;SDS011;17779;50.942;4.026;2023-05-07T04:43:31;14.60;;;5.82;;
31132;SDS011;17779;50.942;4.026;2023-05-07T04:45:57;15.77;;;6.00;;
31132;SDS011;17779;50.942;4.026;2023-05-07T04:48:23;14.23;;;6.70;;
31132;SDS011;17779;50.942;4.026;2023-05-07T04:50:49;13.73;;;5.50;;
31132;SDS011;17779;50.942;4.026;2023-05-07T04:53:16;17.40;;;6.30;;
31132;SDS011;17779;50.942;4.026;2023-05-07T04:55:42;19.58;;;6.70;;
31132;SDS011;17779;50.942;4.026;2023-05-07T04:58:08;14.57;;;6.22;;
31132;SDS011;17779;50.942;4.026;2023-05-07T05:00:34;18.77;;;7.03;;
31132;SDS011;17779;50.942;4.026;2023-05-07T05:05:26;19.10;;;6.68;;
31132;SDS011;17779;50.942;4.026;2023-05-07T05:07:52;18.67;;;5.78;;
31132;SDS011;17779;50.942;4.026;2023-05-07T05:10:18;16.27;;;6.13;;
31132;SDS011;17779;50.942;4.026;2023-05-07T05:12:43;21.45;;;6.47;;
31132;SDS011;17779;50.942;4.026;2023-05-07T05:15:11;14.38;;;5.85;;
31132;SDS011;17779;50.942;4.026;2023-05-07T05:17:37;20.75;;;6.22;;
31132;SDS011;17779;50.942;4.026;2023-05-07T05:20:04;16.95;;;5.68;;
31132;SDS011;17779;50.942;4.026;2023-05-07T05:22:31;17.63;;;5.82;;
31132;SDS011;17779;50.942;4.026;2023-05-07T05:27:23;15.95;;;6.90;;
31132;SDS011;17779;50.942;4.026;2023-05-07T05:29:49;18.05;;;6.70;;
31132;SDS011;17779;50.942;4.026;2023-05-07T05:32:15;19.95;;;7.15;;
31132;SDS011;17779;50.942;4.026;2023-05-07T05:34:41;20.92;;;6.38;;
31132;SDS011;17779;50.942;4.026;2023-05-07T05:37:06;23.02;;;7.97;;
31132;SDS011;17779;50.942;4.026;2023-05-07T05:39:32;17.33;;;6.60;;
31132;SDS011;17779;50.942;4.026;2023-05-07T05:41:58;20.30;;;6.57;;
31132;SDS011;17779;50.942;4.026;2023-05-07T05:44:24;12.77;;;5.63;;
31132;SDS011;17779;50.942;4.026;2023-05-07T05:46:50;14.05;;;6.28;;
31132;SDS011;17779;50.942;4.026;2023-05-07T05:49:16;15.57;;;6.32;;
31132;SDS011;17779;50.942;4.026;2023-05-07T05:51:42;16.35;;;6.82;;
31132;SDS011;17779;50.942;4.026;2023-05-07T05:54:08;13.38;;;6.38;;
31132;SDS011;17779;50.942;4.026;2023-05-07T05:56:34;13.07;;;5.90;;
31132;SDS011;17779;50.942;4.026;2023-05-07T05:59:02;18.23;;;5.65;;
31132;SDS011;17779;50.942;4.026;2023-05-07T06:01:28;19.98;;;6.07;;
31132;SDS011;17779;50.942;4.026;2023-05-07T06:03:53;15.40;;;6.30;;
31132;SDS011;17779;50.942;4.026;2023-05-07T06:06:19;24.65;;;5.95;;
31132;SDS011;17779;50.942;4.026;2023-05-07T06:08:45;13.20;;;5.75;;
31132;SDS011;17779;50.942;4.026;2023-05-07T06:11:10;16.38;;;5.93;;
31132;SDS011;17779;50.942;4.026;2023-05-07T06:13:36;18.30;;;5.82;;
31132;SDS011;17779;50.942;4.026;2023-05-07T06:16:03;21.80;;;6.50;;
31132;SDS011;17779;50.942;4.026;2023-05-07T06:18:29;18.15;;;5.93;;
31132;SDS011;17779;50.942;4.026;2023-05-07T06:20:55;18.73;;;5.57;;
31132;SDS011;17779;50.942;4.026;2023-05-07T06:23:20;14.02;;;6.10;;
31132;SDS011;17779;50.942;4.026;2023-05-07T06:25:49;15.73;;;6.28;;
31132;SDS011;17779;50.942;4.026;2023-05-07T06:28:16;16.52;;;6.10;;
31132;SDS011;17779;50.942;4.026;2023-05-07T06:30:42;16.73;;;6.00;;
31132;SDS011;17779;50.942;4.026;2023-05-07T06:33:08;21.17;;;6.55;;
31132;SDS011;17779;50.942;4.026;2023-05-07T06:35:33;18.42;;;6.35;;
31132;SDS011;17779;50.942;4.026;2023-05-07T06:37:59;19.40;;;6.00;;
31132;SDS011;17779;50.942;4.026;2023-05-07T06:40:26;15.30;;;6.22;;
31132;SDS011;17779;50.942;4.026;2023-05-07T06:42:52;14.32;;;5.80;;
31132;SDS011;17779;50.942;4.026;2023-05-07T06:45:21;19.67;;;6.65;;
31132;SDS011;17779;50.942;4.026;2023-05-07T06:47:47;16.45;;;6.15;;
31132;SDS011;17779;50.942;4.026;2023-05-07T06:50:13;13.35;;;6.10;;
31132;SDS011;17779;50.942;4.026;2023-05-07T06:52:41;17.55;;;6.32;;
31132;SDS011;17779;50.942;4.026;2023-05-07T06:55:06;13.75;;;5.47;;
31132;SDS011;17779;50.942;4.026;2023-05-07T06:57:32;13.32;;;5.07;;
31132;SDS011;17779;50.942;4.026;2023-05-07T06:59:58;17.05;;;5.85;;
31132;SDS011;17779;50.942;4.026;2023-05-07T07:02:25;14.88;;;5.30;;
31132;SDS011;17779;50.942;4.026;2023-05-07T07:04:51;13.43;;;5.47;;
31132;SDS011;17779;50.942;4.026;2023-05-07T07:07:16;14.45;;;5.57;;
31132;SDS011;17779;50.942;4.026;2023-05-07T07:09:42;14.40;;;5.10;;
31132;SDS011;17779;50.942;4.026;2023-05-07T07:12:08;13.38;;;4.30;;
31132;SDS011;17779;50.942;4.026;2023-05-07T07:14:33;16.27;;;4.90;;
31132;SDS011;17779;50.942;4.026;2023-05-07T07:16:59;11.45;;;4.40;;
31132;SDS011;17779;50.942;4.026;2023-05-07T07:19:25;15.52;;;4.55;;
31132;SDS011;17779;50.942;4.026;2023-05-07T07:24:16;18.83;;;5.07;;
31132;SDS011;17779;50.942;4.026;2023-05-07T07:26:46;12.48;;;4.72;;
31132;SDS011;17779;50.942;4.026;2023-05-07T07:29:11;10.85;;;3.72;;
31132;SDS011;17779;50.942;4.026;2023-05-07T07:31:37;10.65;;;3.85;;
31132;SDS011;17779;50.942;4.026;2023-05-07T07:34:03;10.98;;;4.15;;
31132;SDS011;17779;50.942;4.026;2023-05-07T07:36:29;11.35;;;4.03;;
31132;SDS011;17779;50.942;4.026;2023-05-07T07:38:55;8.75;;;3.90;;
31132;SDS011;17779;50.942;4.026;2023-05-07T07:41:20;11.93;;;3.95;;
31132;SDS011;17779;50.942;4.026;2023-05-07T07:43:46;11.38;;;4.38;;
31132;SDS011;17779;50.942;4.026;2023-05-07T07:46:12;12.18;;;4.25;;
31132;SDS011;17779;50.942;4.026;2023-05-07T07:48:38;10.05;;;3.97;;
31132;SDS011;17779;50.942;4.026;2023-05-07T07:51:04;17.77;;;4.88;;
31132;SDS011;17779;50.942;4.026;2023-05-07T07:53:29;15.15;;;3.85;;
31132;SDS011;17779;50.942;4.026;2023-05-07T07:55:55;9.95;;;3.20;;
31132;SDS011;17779;50.942;4.026;2023-05-07T07:58:21;13.27;;;3.88;;
31132;SDS011;17779;50.942;4.026;2023-05-07T08:00:47;13.23;;;3.90;;
31132;SDS011;17779;50.942;4.026;2023-05-07T08:03:13;15.65;;;3.80;;
31132;SDS011;17779;50.942;4.026;2023-05-07T08:05:41;10.02;;;3.58;;
31132;SDS011;17779;50.942;4.026;2023-05-07T08:08:07;10.00;;;3.35;;
31132;SDS011;17779;50.942;4.026;2023-05-07T08:10:33;10.23;;;3.70;;
31132;SDS011;17779;50.942;4.026;2023-05-07T08:12:59;13.00;;;4.47;;
31132;SDS011;17779;50.942;4.026;2023-05-07T08:15:25;11.38;;;3.50;;
31132;SDS011;17779;50.942;4.026;2023-05-07T08:17:51;8.35;;;3.30;;
31132;SDS011;17779;50.942;4.026;2023-05-07T08:20:18;13.32;;;3.95;;
31132;SDS011;17779;50.942;4.026;2023-05-07T08:22:44;16.17;;;4.40;;
31132;SDS011;17779;50.942;4.026;2023-05-07T08:25:11;9.25;;;4.47;;
31132;SDS011;17779;50.942;4.026;2023-05-07T08:27:38;13.63;;;4.97;;
31132;SDS011;17779;50.942;4.026;2023-05-07T08:30:03;13.32;;;5.40;;
31132;SDS011;17779;50.942;4.026;2023-05-07T08:34:55;19.30;;;5.57;;
31132;SDS011;17779;50.942;4.026;2023-05-07T08:37:21;14.02;;;6.13;;
31132;SDS011;17779;50.942;4.026;2023-05-07T08:39:47;17.15;;;6.05;;
31132;SDS011;17779;50.942;4.026;2023-05-07T08:42:13;21.17;;;8.98;;
31132;SDS011;17779;50.942;4.026;2023-05-07T08:44:41;20.10;;;8.15;;
31132;SDS011;17779;50.942;4.026;2023-05-07T08:47:12;20.98;;;8.23;;
31132;SDS011;17779;50.942;4.026;2023-05-07T08:49:39;17.05;;;7.60;;
31132;SDS011;17779;50.942;4.026;2023-05-07T08:52:05;12.77;;;5.97;;
31132;SDS011;17779;50.942;4.026;2023-05-07T08:56:57;16.52;;;7.00;;
31132;SDS011;17779;50.942;4.026;2023-05-07T08:59:23;17.75;;;6.13;;
31132;SDS011;17779;50.942;4.026;2023-05-07T09:01:48;15.95;;;6.07;;
31132;SDS011;17779;50.942;4.026;2023-05-07T09:04:14;14.88;;;6.18;;
31132;SDS011;17779;50.942;4.026;2023-05-07T09:06:44;14.98;;;5.15;;
31132;SDS011;17779;50.942;4.026;2023-05-07T09:09:10;14.48;;;5.38;;
31132;SDS011;17779;50.942;4.026;2023-05-07T09:11:42;11.60;;;5.13;;
31132;SDS011;17779;50.942;4.026;2023-05-07T09:14:08;12.68;;;5.43;;
31132;SDS011;17779;50.942;4.026;2023-05-07T09:16:33;14.00;;;5.55;;
31132;SDS011;17779;50.942;4.026;2023-05-07T09:18:59;15.20;;;4.70;;
31132;SDS011;17779;50.942;4.026;2023-05-07T09:21:26;11.85;;;3.70;;
31132;SDS011;17779;50.942;4.026;2023-05-07T09:23:52;11.98;;;3.78;;
31132;SDS011;17779;50.942;4.026;2023-05-07T09:26:23;9.98;;;3.45;;
31132;SDS011;17779;50.942;4.026;2023-05-07T09:28:50;10.43;;;3.55;;
31132;SDS011;17779;50.942;4.026;2023-05-07T09:31:16;10.82;;;2.90;;
31132;SDS011;17779;50.942;4.026;2023-05-07T09:33:42;11.05;;;2.80;;
31132;SDS011;17779;50.942;4.026;2023-05-07T09:36:08;13.55;;;3.85;;
31132;SDS011;17779;50.942;4.026;2023-05-07T09:38:35;10.93;;;3.63;;
31132;SDS011;17779;50.942;4.026;2023-05-07T09:41:05;12.82;;;4.03;;
31132;SDS011;17779;50.942;4.026;2023-05-07T09:43:36;12.35;;;3.33;;
31132;SDS011;17779;50.942;4.026;2023-05-07T09:46:05;9.32;;;2.88;;
31132;SDS011;17779;50.942;4.026;2023-05-07T09:48:44;8.82;;;2.45;;
31132;SDS011;17779;50.942;4.026;2023-05-07T09:51:15;10.75;;;2.40;;
31132;SDS011;17779;50.942;4.026;2023-05-07T09:53:45;7.07;;;2.50;;
31132;SDS011;17779;50.942;4.026;2023-05-07T09:56:13;10.05;;;2.63;;
31132;SDS011;17779;50.942;4.026;2023-05-07T09:58:40;9.45;;;3.00;;
31132;SDS011;17779;50.942;4.026;2023-05-07T10:01:07;7.53;;;2.88;;
31132;SDS011;17779;50.942;4.026;2023-05-07T10:03:33;7.50;;;2.72;;
31132;SDS011;17779;50.942;4.026;2023-05-07T10:06:01;10.02;;;3.10;;
31132;SDS011;17779;50.942;4.026;2023-05-07T10:08:28;8.35;;;3.15;;
31132;SDS011;17779;50.942;4.026;2023-05-07T10:10:55;8.90;;;2.88;;
31132;SDS011;17779;50.942;4.026;2023-05-07T10:13:21;9.93;;;3.20;;
31132;SDS011;17779;50.942;4.026;2023-05-07T10:18:15;5.35;;;2.97;;
31132;SDS011;17779;50.942;4.026;2023-05-07T10:20:42;6.95;;;2.72;;
31132;SDS011;17779;50.942;4.026;2023-05-07T10:23:12;8.98;;;3.17;;
31132;SDS011;17779;50.942;4.026;2023-05-07T10:25:39;6.03;;;2.92;;
31132;SDS011;17779;50.942;4.026;2023-05-07T10:28:08;10.00;;;2.80;;
31132;SDS011;17779;50.942;4.026;2023-05-07T10:33:14;5.60;;;2.60;;
31132;SDS011;17779;50.942;4.026;2023-05-07T10:38:20;13.70;;;3.55;;
31132;SDS011;17779;50.942;4.026;2023-05-07T10:40:47;7.43;;;3.08;;
31132;SDS011;17779;50.942;4.026;2023-05-07T10:43:16;9.02;;;3.38;;
31132;SDS011;17779;50.942;4.026;2023-05-07T10:45:42;7.47;;;2.78;;
31132;SDS011;17779;50.942;4.026;2023-05-07T10:48:14;6.18;;;3.00;;
31132;SDS011;17779;50.942;4.026;2023-05-07T10:50:41;9.75;;;3.40;;
31132;SDS011;17779;50.942;4.026;2023-05-07T10:55:47;8.20;;;3.22;;
31132;SDS011;17779;50.942;4.026;2023-05-07T10:58:25;11.55;;;4.28;;
31132;SDS011;17779;50.942;4.026;2023-05-07T11:01:00;6.70;;;3.53;;
31132;SDS011;17779;50.942;4.026;2023-05-07T11:03:29;8.93;;;3.42;;
31132;SDS011;17779;50.942;4.026;2023-05-07T11:06:08;10.07;;;3.90;;
31132;SDS011;17779;50.942;4.026;2023-05-07T11:08:56;12.20;;;4.15;;
31132;SDS011;17779;50.942;4.026;2023-05-07T11:17:18;7.90;;;3.25;;
31132;SDS011;17779;50.942;4.026;2023-05-07T11:19:54;7.70;;;3.67;;
31132;SDS011;17779;50.942;4.026;2023-05-07T11:22:40;7.40;;;3.80;;
31132;SDS011;17779;50.942;4.026;2023-05-07T11:25:08;6.88;;;3.30;;
31132;SDS011;17779;50.942;4.026;2023-05-07T11:27:35;8.63;;;3.20;;
31132;SDS011;17779;50.942;4.026;2023-05-07T11:30:02;6.22;;;3.30;;
31132;SDS011;17779;50.942;4.026;2023-05-07T11:32:29;6.40;;;2.90;;
31132;SDS011;17779;50.942;4.026;2023-05-07T11:34:58;6.72;;;3.63;;
31132;SDS011;17779;50.942;4.026;2023-05-07T11:37:26;5.82;;;3.13;;
31132;SDS011;17779;50.942;4.026;2023-05-07T11:40:07;6.28;;;3.22;;
31132;SDS011;17779;50.942;4.026;2023-05-07T11:42:36;7.25;;;3.33;;
31132;SDS011;17779;50.942;4.026;2023-05-07T11:45:03;5.00;;;2.70;;
31132;SDS011;17779;50.942;4.026;2023-05-07T11:47:31;5.80;;;2.70;;
31132;SDS011;17779;50.942;4.026;2023-05-07T11:52:27;4.90;;;2.70;;
31132;SDS011;17779;50.942;4.026;2023-05-07T11:54:54;5.15;;;2.40;;
31132;SDS011;17779;50.942;4.026;2023-05-07T11:57:21;6.05;;;2.60;;
31132;SDS011;17779;50.942;4.026;2023-05-07T11:59:48;5.72;;;2.78;;
31132;SDS011;17779;50.942;4.026;2023-05-07T12:02:19;6.28;;;2.60;;
31132;SDS011;17779;50.942;4.026;2023-05-07T12:04:47;8.73;;;2.47;;
31132;SDS011;17779;50.942;4.026;2023-05-07T12:07:13;5.43;;;2.33;;
31132;SDS011;17779;50.942;4.026;2023-05-07T12:09:42;8.07;;;2.45;;
31132;SDS011;17779;50.942;4.026;2023-05-07T12:14:43;8.23;;;2.10;;
31132;SDS011;17779;50.942;4.026;2023-05-07T12:17:12;4.68;;;2.08;;
31132;SDS011;17779;50.942;4.026;2023-05-07T12:19:41;4.53;;;2.13;;
31132;SDS011;17779;50.942;4.026;2023-05-07T12:22:08;2.85;;;1.60;;
31132;SDS011;17779;50.942;4.026;2023-05-07T12:27:13;4.25;;;2.05;;
31132;SDS011;17779;50.942;4.026;2023-05-07T12:29:43;4.38;;;2.20;;
31132;SDS011;17779;50.942;4.026;2023-05-07T12:32:13;8.85;;;2.10;;
31132;SDS011;17779;50.942;4.026;2023-05-07T12:34:40;4.15;;;2.33;;
31132;SDS011;17779;50.942;4.026;2023-05-07T12:37:06;6.15;;;2.75;;
31132;SDS011;17779;50.942;4.026;2023-05-07T12:39:32;4.43;;;2.63;;
31132;SDS011;17779;50.942;4.026;2023-05-07T12:41:59;7.53;;;2.70;;
31132;SDS011;17779;50.942;4.026;2023-05-07T12:44:25;6.57;;;3.63;;
31132;SDS011;17779;50.942;4.026;2023-05-07T12:46:56;7.40;;;3.58;;
31132;SDS011;17779;50.942;4.026;2023-05-07T12:49:22;8.80;;;3.65;;
31132;SDS011;17779;50.942;4.026;2023-05-07T12:51:49;6.32;;;3.80;;
31132;SDS011;17779;50.942;4.026;2023-05-07T12:54:28;6.28;;;3.50;;
31132;SDS011;17779;50.942;4.026;2023-05-07T12:57:02;6.55;;;3.58;;
31132;SDS011;17779;50.942;4.026;2023-05-07T12:59:41;10.10;;;4.03;;
31132;SDS011;17779;50.942;4.026;2023-05-07T13:02:08;11.70;;;4.10;;
31132;SDS011;17779;50.942;4.026;2023-05-07T13:04:34;8.02;;;4.13;;
31132;SDS011;17779;50.942;4.026;2023-05-07T13:07:00;6.60;;;3.88;;
31132;SDS011;17779;50.942;4.026;2023-05-07T13:09:27;5.95;;;4.07;;
31132;SDS011;17779;50.942;4.026;2023-05-07T13:11:56;7.00;;;4.10;;
31132;SDS011;17779;50.942;4.026;2023-05-07T13:14:27;11.25;;;4.70;;
31132;SDS011;17779;50.942;4.026;2023-05-07T13:16:54;7.78;;;3.80;;
31132;SDS011;17779;50.942;4.026;2023-05-07T13:19:21;8.70;;;4.43;;
31132;SDS011;17779;50.942;4.026;2023-05-07T13:21:47;8.25;;;3.90;;
31132;SDS011;17779;50.942;4.026;2023-05-07T13:24:14;9.50;;;4.25;;
31132;SDS011;17779;50.942;4.026;2023-05-07T13:26:40;8.23;;;4.38;;
31132;SDS011;17779;50.942;4.026;2023-05-07T13:29:07;7.85;;;3.75;;
31132;SDS011;17779;50.942;4.026;2023-05-07T13:31:32;7.28;;;3.88;;
31132;SDS011;17779;50.942;4.026;2023-05-07T13:33:59;5.65;;;3.60;;
31132;SDS011;17779;50.942;4.026;2023-05-07T13:36:28;6.90;;;4.05;;
31132;SDS011;17779;50.942;4.026;2023-05-07T13:38:57;8.95;;;4.20;;
31132;SDS011;17779;50.942;4.026;2023-05-07T13:41:25;6.72;;;3.78;;
31132;SDS011;17779;50.942;4.026;2023-05-07T13:43:51;6.20;;;3.92;;
31132;SDS011;17779;50.942;4.026;2023-05-07T13:46:17;9.60;;;4.30;;
31132;SDS011;17779;50.942;4.026;2023-05-07T13:48:44;8.57;;;4.75;;
31132;SDS011;17779;50.942;4.026;2023-05-07T13:51:10;6.90;;;4.22;;
31132;SDS011;17779;50.942;4.026;2023-05-07T13:53:36;8.55;;;4.90;;
31132;SDS011;17779;50.942;4.026;2023-05-07T13:56:01;8.45;;;4.75;;
31132;SDS011;17779;50.942;4.026;2023-05-07T13:58:29;7.97;;;4.22;;
31132;SDS011;17779;50.942;4.026;2023-05-07T14:00:55;9.52;;;4.38;;
31132;SDS011;17779;50.942;4.026;2023-05-07T14:03:21;10.68;;;5.32;;
31132;SDS011;17779;50.942;4.026;2023-05-07T14:05:47;9.98;;;4.88;;
31132;SDS011;17779;50.942;4.026;2023-05-07T14:08:13;7.65;;;4.55;;
31132;SDS011;17779;50.942;4.026;2023-05-07T14:10:39;9.10;;;4.68;;
31132;SDS011;17779;50.942;4.026;2023-05-07T14:13:05;9.32;;;4.25;;
31132;SDS011;17779;50.942;4.026;2023-05-07T14:15:31;9.60;;;5.18;;
31132;SDS011;17779;50.942;4.026;2023-05-07T14:17:58;9.07;;;4.65;;
31132;SDS011;17779;50.942;4.026;2023-05-07T14:20:25;10.02;;;5.18;;
31132;SDS011;17779;50.942;4.026;2023-05-07T14:22:51;11.35;;;5.50;;
31132;SDS011;17779;50.942;4.026;2023-05-07T14:25:24;10.43;;;5.85;;
31132;SDS011;17779;50.942;4.026;2023-05-07T14:27:50;10.50;;;6.00;;
31132;SDS011;17779;50.942;4.026;2023-05-07T14:30:17;10.40;;;5.78;;
31132;SDS011;17779;50.942;4.026;2023-05-07T14:32:43;10.85;;;5.93;;
31132;SDS011;17779;50.942;4.026;2023-05-07T14:35:09;10.00;;;6.20;;
31132;SDS011;17779;50.942;4.026;2023-05-07T14:37:35;10.05;;;6.25;;
31132;SDS011;17779;50.942;4.026;2023-05-07T14:40:02;10.65;;;6.53;;
31132;SDS011;17779;50.942;4.026;2023-05-07T14:42:29;14.43;;;6.65;;
31132;SDS011;17779;50.942;4.026;2023-05-07T14:44:55;10.88;;;6.55;;
31132;SDS011;17779;50.942;4.026;2023-05-07T14:47:21;12.23;;;6.68;;
31132;SDS011;17779;50.942;4.026;2023-05-07T14:49:46;12.32;;;6.93;;
31132;SDS011;17779;50.942;4.026;2023-05-07T14:52:13;15.82;;;7.45;;
31132;SDS011;17779;50.942;4.026;2023-05-07T14:54:39;13.95;;;7.57;;
31132;SDS011;17779;50.942;4.026;2023-05-07T14:57:08;14.65;;;7.93;;
31132;SDS011;17779;50.942;4.026;2023-05-07T14:59:35;14.60;;;8.32;;
31132;SDS011;17779;50.942;4.026;2023-05-07T15:02:02;15.32;;;7.78;;
31132;SDS011;17779;50.942;4.026;2023-05-07T15:04:30;14.48;;;7.22;;
31132;SDS011;17779;50.942;4.026;2023-05-07T15:06:56;15.00;;;8.07;;
31132;SDS011;17779;50.942;4.026;2023-05-07T15:09:22;18.73;;;8.95;;
31132;SDS011;17779;50.942;4.026;2023-05-07T15:11:48;13.95;;;7.75;;
31132;SDS011;17779;50.942;4.026;2023-05-07T15:14:14;17.17;;;8.27;;
31132;SDS011;17779;50.942;4.026;2023-05-07T15:16:39;14.18;;;8.15;;
31132;SDS011;17779;50.942;4.026;2023-05-07T15:19:05;16.90;;;9.55;;
31132;SDS011;17779;50.942;4.026;2023-05-07T15:21:31;18.70;;;9.02;;
31132;SDS011;17779;50.942;4.026;2023-05-07T15:24:04;18.50;;;9.07;;
31132;SDS011;17779;50.942;4.026;2023-05-07T15:26:31;15.93;;;8.18;;